sensor_id;sensor_type;location;lat;lon;timestamp;P1;P2;P0
39955;PMS5003;25631;51.516;-0.470;2023-03-20T00:01:54;5;4;
39955;PMS5003;25631;51.516;-0.470;2023-03-20T00:04:31;5;4;
39955;PMS5003;25631;51.516;-0.470;2023-03-20T00:07:08;5;4;
39955;PMS5003;25631;51.516;-0.470;2023-03-20T00:09:44;6;4;
39955;PMS5003;25631;51.516;-0.470;2023-03-20T00:12:22;6;4;
39955;PMS5003;25631;51.516;-0.470;2023-03-20T00:15:00;6;4;
39955;PMS5003;25631;51.516;-0.470;2023-03-20T00:17:38;5;4;
39955;PMS5003;25631;51.516;-0.470;2023-03-20T00:20:15;5;4;
39955;PMS5003;25631;51.516;-0.470;2023-03-20T00:22:52;5;4;
39955;PMS5003;25631;51.516;-0.470;2023-03-20T00:25:28;5;5;
39955;PMS5003;25631;51.516;-0.470;2023-03-20T00:28:19;5;5;
39955;PMS5003;25631;51.516;-0.470;2023-03-20T00:31:09;5;5;
39955;PMS5003;25631;51.516;-0.470;2023-03-20T00:33:54;5;4;
39955;PMS5003;25631;51.516;-0.470;2023-03-20T00:36:32;5;4;
39955;PMS5003;25631;51.516;-0.470;2023-03-20T00:39:08;5;4;
39955;PMS5003;25631;51.516;-0.470;2023-03-20T00:41:46;6;4;
39955;PMS5003;25631;51.516;-0.470;2023-03-20T00:44:26;6;4;
39955;PMS5003;25631;51.516;-0.470;2023-03-20T00:47:10;6;4;
39955;PMS5003;25631;51.516;-0.470;2023-03-20T00:49:51;6;4;
39955;PMS5003;25631;51.516;-0.470;2023-03-20T00:52:29;6;4;
39955;PMS5003;25631;51.516;-0.470;2023-03-20T00:55:05;6;4;
39955;PMS5003;25631;51.516;-0.470;2023-03-20T00:57:44;5;4;
39955;PMS5003;25631;51.516;-0.470;2023-03-20T01:00:25;5;4;
39955;PMS5003;25631;51.516;-0.470;2023-03-20T01:03:11;5;4;
39955;PMS5003;25631;51.516;-0.470;2023-03-20T01:05:50;6;4;
39955;PMS5003;25631;51.516;-0.470;2023-03-20T01:08:26;6;4;
39955;PMS5003;25631;51.516;-0.470;2023-03-20T01:11:03;6;4;
39955;PMS5003;25631;51.516;-0.470;2023-03-20T01:13:40;6;4;
39955;PMS5003;25631;51.516;-0.470;2023-03-20T01:16:18;6;4;
39955;PMS5003;25631;51.516;-0.470;2023-03-20T01:18:56;6;4;
39955;PMS5003;25631;51.516;-0.470;2023-03-20T01:21:33;6;4;
39955;PMS5003;25631;51.516;-0.470;2023-03-20T01:24:09;6;4;
39955;PMS5003;25631;51.516;-0.470;2023-03-20T01:26:46;6;4;
39955;PMS5003;25631;51.516;-0.470;2023-03-20T01:29:23;4;3;
39955;PMS5003;25631;51.516;-0.470;2023-03-20T01:32:00;4;3;
39955;PMS5003;25631;51.516;-0.470;2023-03-20T01:34:37;4;3;
39955;PMS5003;25631;51.516;-0.470;2023-03-20T01:37:14;4;3;
39955;PMS5003;25631;51.516;-0.470;2023-03-20T01:39:55;5;4;
39955;PMS5003;25631;51.516;-0.470;2023-03-20T01:42:32;5;4;
39955;PMS5003;25631;51.516;-0.470;2023-03-20T01:45:11;5;3;
39955;PMS5003;25631;51.516;-0.470;2023-03-20T01:47:51;5;3;
39955;PMS5003;25631;51.516;-0.470;2023-03-20T01:50:28;5;3;
39955;PMS5003;25631;51.516;-0.470;2023-03-20T01:53:08;5;3;
39955;PMS5003;25631;51.516;-0.470;2023-03-20T01:55:49;5;3;
39955;PMS5003;25631;51.516;-0.470;2023-03-20T01:58:30;4;2;
39955;PMS5003;25631;51.516;-0.470;2023-03-20T02:01:11;3;2;
39955;PMS5003;25631;51.516;-0.470;2023-03-20T02:03:49;3;2;
39955;PMS5003;25631;51.516;-0.470;2023-03-20T02:06:26;4;3;
39955;PMS5003;25631;51.516;-0.470;2023-03-20T02:09:03;4;3;
39955;PMS5003;25631;51.516;-0.470;2023-03-20T02:11:39;4;3;
39955;PMS5003;25631;51.516;-0.470;2023-03-20T02:14:18;4;3;
39955;PMS5003;25631;51.516;-0.470;2023-03-20T02:16:55;3;2;
39955;PMS5003;25631;51.516;-0.470;2023-03-20T02:19:34;3;2;
39955;PMS5003;25631;51.516;-0.470;2023-03-20T02:22:29;3;2;
39955;PMS5003;25631;51.516;-0.470;2023-03-20T02:26:35;3;2;
39955;PMS5003;25631;51.516;-0.470;2023-03-20T02:31:42;3;2;
39955;PMS5003;25631;51.516;-0.470;2023-03-20T02:35:04;4;2;
39955;PMS5003;25631;51.516;-0.470;2023-03-20T02:39:04;4;2;
39955;PMS5003;25631;51.516;-0.470;2023-03-20T02:41:55;4;2;
39955;PMS5003;25631;51.516;-0.470;2023-03-20T02:44:40;4;3;
39955;PMS5003;25631;51.516;-0.470;2023-03-20T02:47:22;4;3;
39955;PMS5003;25631;51.516;-0.470;2023-03-20T02:50:06;4;3;
39955;PMS5003;25631;51.516;-0.470;2023-03-20T02:52:57;5;3;
39955;PMS5003;25631;51.516;-0.470;2023-03-20T02:55:45;5;3;
39955;PMS5003;25631;51.516;-0.470;2023-03-20T02:58:29;5;3;
39955;PMS5003;25631;51.516;-0.470;2023-03-20T03:01:13;7;4;
39955;PMS5003;25631;51.516;-0.470;2023-03-20T03:03:53;7;4;
39955;PMS5003;25631;51.516;-0.470;2023-03-20T03:06:33;8;5;
39955;PMS5003;25631;51.516;-0.470;2023-03-20T03:09:13;7;5;
39955;PMS5003;25631;51.516;-0.470;2023-03-20T03:11:54;7;5;
39955;PMS5003;25631;51.516;-0.470;2023-03-20T03:14:36;7;5;
39955;PMS5003;25631;51.516;-0.470;2023-03-20T03:17:16;7;6;
39955;PMS5003;25631;51.516;-0.470;2023-03-20T03:19:57;7;6;
39955;PMS5003;25631;51.516;-0.470;2023-03-20T03:22:37;7;6;
39955;PMS5003;25631;51.516;-0.470;2023-03-20T03:25:13;8;5;
39955;PMS5003;25631;51.516;-0.470;2023-03-20T03:27:51;8;5;
39955;PMS5003;25631;51.516;-0.470;2023-03-20T03:30:35;8;5;
39955;PMS5003;25631;51.516;-0.470;2023-03-20T03:33:16;9;5;
39955;PMS5003;25631;51.516;-0.470;2023-03-20T03:35:58;9;5;
39955;PMS5003;25631;51.516;-0.470;2023-03-20T03:38:44;9;5;
39955;PMS5003;25631;51.516;-0.470;2023-03-20T03:41:27;9;5;
39955;PMS5003;25631;51.516;-0.470;2023-03-20T03:44:10;9;5;
39955;PMS5003;25631;51.516;-0.470;2023-03-20T03:46:53;9;5;
39955;PMS5003;25631;51.516;-0.470;2023-03-20T03:49:34;8;4;
39955;PMS5003;25631;51.516;-0.470;2023-03-20T03:52:14;8;4;
39955;PMS5003;25631;51.516;-0.470;2023-03-20T03:54:56;8;4;
39955;PMS5003;25631;51.516;-0.470;2023-03-20T03:57:39;8;4;
39955;PMS5003;25631;51.516;-0.470;2023-03-20T04:00:20;8;4;
39955;PMS5003;25631;51.516;-0.470;2023-03-20T04:02:59;8;4;
39955;PMS5003;25631;51.516;-0.470;2023-03-20T04:05:36;8;4;
39955;PMS5003;25631;51.516;-0.470;2023-03-20T04:08:16;8;4;
39955;PMS5003;25631;51.516;-0.470;2023-03-20T04:10:52;8;4;
39955;PMS5003;25631;51.516;-0.470;2023-03-20T04:13:29;8;4;
39955;PMS5003;25631;51.516;-0.470;2023-03-20T04:16:06;8;4;
39955;PMS5003;25631;51.516;-0.470;2023-03-20T04:18:47;8;4;
39955;PMS5003;25631;51.516;-0.470;2023-03-20T04:21:23;6;2;
39955;PMS5003;25631;51.516;-0.470;2023-03-20T04:24:00;6;2;
39955;PMS5003;25631;51.516;-0.470;2023-03-20T04:26:37;6;2;
39955;PMS5003;25631;51.516;-0.470;2023-03-20T04:29:13;6;2;
39955;PMS5003;25631;51.516;-0.470;2023-03-20T04:31:50;6;2;
39955;PMS5003;25631;51.516;-0.470;2023-03-20T04:34:27;6;2;
39955;PMS5003;25631;51.516;-0.470;2023-03-20T04:37:03;6;2;
39955;PMS5003;25631;51.516;-0.470;2023-03-20T04:39:40;6;2;
39955;PMS5003;25631;51.516;-0.470;2023-03-20T04:42:16;6;2;
39955;PMS5003;25631;51.516;-0.470;2023-03-20T04:44:53;7;3;
39955;PMS5003;25631;51.516;-0.470;2023-03-20T04:47:29;7;3;
39955;PMS5003;25631;51.516;-0.470;2023-03-20T04:50:06;7;3;
39955;PMS5003;25631;51.516;-0.470;2023-03-20T04:52:43;5;3;
39955;PMS5003;25631;51.516;-0.470;2023-03-20T04:55:20;5;3;
39955;PMS5003;25631;51.516;-0.470;2023-03-20T04:57:56;5;3;
39955;PMS5003;25631;51.516;-0.470;2023-03-20T05:00:32;6;4;
39955;PMS5003;25631;51.516;-0.470;2023-03-20T05:03:09;6;4;
39955;PMS5003;25631;51.516;-0.470;2023-03-20T05:05:45;6;4;
39955;PMS5003;25631;51.516;-0.470;2023-03-20T05:08:22;6;4;
39955;PMS5003;25631;51.516;-0.470;2023-03-20T05:10:58;6;4;
39955;PMS5003;25631;51.516;-0.470;2023-03-20T05:13:35;6;4;
39955;PMS5003;25631;51.516;-0.470;2023-03-20T05:16:12;6;4;
39955;PMS5003;25631;51.516;-0.470;2023-03-20T05:18:48;6;4;
39955;PMS5003;25631;51.516;-0.470;2023-03-20T05:21:25;6;4;
39955;PMS5003;25631;51.516;-0.470;2023-03-20T05:24:01;7;4;
39955;PMS5003;25631;51.516;-0.470;2023-03-20T05:26:38;7;4;
39955;PMS5003;25631;51.516;-0.470;2023-03-20T05:29:15;7;4;
39955;PMS5003;25631;51.516;-0.470;2023-03-20T05:31:51;7;5;
39955;PMS5003;25631;51.516;-0.470;2023-03-20T05:34:28;7;5;
39955;PMS5003;25631;51.516;-0.470;2023-03-20T05:37:04;7;5;
39955;PMS5003;25631;51.516;-0.470;2023-03-20T05:39:41;7;5;
39955;PMS5003;25631;51.516;-0.470;2023-03-20T05:42:17;7;5;
39955;PMS5003;25631;51.516;-0.470;2023-03-20T05:44:53;7;5;
39955;PMS5003;25631;51.516;-0.470;2023-03-20T05:47:30;7;5;
39955;PMS5003;25631;51.516;-0.470;2023-03-20T05:50:07;7;5;
39955;PMS5003;25631;51.516;-0.470;2023-03-20T05:52:45;7;5;
39955;PMS5003;25631;51.516;-0.470;2023-03-20T05:55:22;7;5;
39955;PMS5003;25631;51.516;-0.470;2023-03-20T05:57:58;7;5;
39955;PMS5003;25631;51.516;-0.470;2023-03-20T06:00:34;7;5;
39955;PMS5003;25631;51.516;-0.470;2023-03-20T06:03:11;7;5;
39955;PMS5003;25631;51.516;-0.470;2023-03-20T06:05:47;7;5;
39955;PMS5003;25631;51.516;-0.470;2023-03-20T06:08:24;7;5;
39955;PMS5003;25631;51.516;-0.470;2023-03-20T06:11:01;7;5;
39955;PMS5003;25631;51.516;-0.470;2023-03-20T06:13:37;7;5;
39955;PMS5003;25631;51.516;-0.470;2023-03-20T06:16:13;7;5;
39955;PMS5003;25631;51.516;-0.470;2023-03-20T06:18:50;6;4;
39955;PMS5003;25631;51.516;-0.470;2023-03-20T06:21:26;6;4;
39955;PMS5003;25631;51.516;-0.470;2023-03-20T06:24:03;6;4;
39955;PMS5003;25631;51.516;-0.470;2023-03-20T06:26:41;6;4;
39955;PMS5003;25631;51.516;-0.470;2023-03-20T06:29:17;6;4;
39955;PMS5003;25631;51.516;-0.470;2023-03-20T06:31:54;6;4;
39955;PMS5003;25631;51.516;-0.470;2023-03-20T06:34:30;6;5;
39955;PMS5003;25631;51.516;-0.470;2023-03-20T06:37:07;6;5;
39955;PMS5003;25631;51.516;-0.470;2023-03-20T06:39:44;6;5;
39955;PMS5003;25631;51.516;-0.470;2023-03-20T06:42:20;5;4;
39955;PMS5003;25631;51.516;-0.470;2023-03-20T06:44:57;5;4;
39955;PMS5003;25631;51.516;-0.470;2023-03-20T06:47:33;5;4;
39955;PMS5003;25631;51.516;-0.470;2023-03-20T06:50:10;6;5;
39955;PMS5003;25631;51.516;-0.470;2023-03-20T06:52:47;6;5;
39955;PMS5003;25631;51.516;-0.470;2023-03-20T06:55:23;6;5;
39955;PMS5003;25631;51.516;-0.470;2023-03-20T06:57:59;6;4;
39955;PMS5003;25631;51.516;-0.470;2023-03-20T07:00:36;6;4;
39955;PMS5003;25631;51.516;-0.470;2023-03-20T07:03:12;6;4;
39955;PMS5003;25631;51.516;-0.470;2023-03-20T07:05:49;6;5;
39955;PMS5003;25631;51.516;-0.470;2023-03-20T07:08:26;6;5;
39955;PMS5003;25631;51.516;-0.470;2023-03-20T07:11:02;6;5;
39955;PMS5003;25631;51.516;-0.470;2023-03-20T07:13:39;5;4;
39955;PMS5003;25631;51.516;-0.470;2023-03-20T07:16:15;5;4;
39955;PMS5003;25631;51.516;-0.470;2023-03-20T07:18:52;5;4;
39955;PMS5003;25631;51.516;-0.470;2023-03-20T07:21:28;5;4;
39955;PMS5003;25631;51.516;-0.470;2023-03-20T07:24:05;5;4;
39955;PMS5003;25631;51.516;-0.470;2023-03-20T07:26:42;5;4;
39955;PMS5003;25631;51.516;-0.470;2023-03-20T07:29:19;5;4;
39955;PMS5003;25631;51.516;-0.470;2023-03-20T07:31:55;5;4;
39955;PMS5003;25631;51.516;-0.470;2023-03-20T07:34:31;5;4;
39955;PMS5003;25631;51.516;-0.470;2023-03-20T07:37:08;6;5;
39955;PMS5003;25631;51.516;-0.470;2023-03-20T07:39:44;6;5;
39955;PMS5003;25631;51.516;-0.470;2023-03-20T07:42:21;6;5;
39955;PMS5003;25631;51.516;-0.470;2023-03-20T07:44:57;6;5;
39955;PMS5003;25631;51.516;-0.470;2023-03-20T07:47:34;6;5;
39955;PMS5003;25631;51.516;-0.470;2023-03-20T07:50:11;6;5;
39955;PMS5003;25631;51.516;-0.470;2023-03-20T07:52:47;8;6;
39955;PMS5003;25631;51.516;-0.470;2023-03-20T07:55:25;8;6;
39955;PMS5003;25631;51.516;-0.470;2023-03-20T07:58:01;8;6;
39955;PMS5003;25631;51.516;-0.470;2023-03-20T08:00:38;7;6;
39955;PMS5003;25631;51.516;-0.470;2023-03-20T08:03:14;7;6;
39955;PMS5003;25631;51.516;-0.470;2023-03-20T08:05:51;7;6;
39955;PMS5003;25631;51.516;-0.470;2023-03-20T08:08:29;6;5;
39955;PMS5003;25631;51.516;-0.470;2023-03-20T08:11:06;6;5;
39955;PMS5003;25631;51.516;-0.470;2023-03-20T08:13:42;6;5;
39955;PMS5003;25631;51.516;-0.470;2023-03-20T08:16:19;7;5;
39955;PMS5003;25631;51.516;-0.470;2023-03-20T08:18:55;7;5;
39955;PMS5003;25631;51.516;-0.470;2023-03-20T08:21:32;7;5;
39955;PMS5003;25631;51.516;-0.470;2023-03-20T08:24:09;7;6;
39955;PMS5003;25631;51.516;-0.470;2023-03-20T08:26:45;7;6;
39955;PMS5003;25631;51.516;-0.470;2023-03-20T08:29:22;7;6;
39955;PMS5003;25631;51.516;-0.470;2023-03-20T08:31:58;7;6;
39955;PMS5003;25631;51.516;-0.470;2023-03-20T08:34:34;7;6;
39955;PMS5003;25631;51.516;-0.470;2023-03-20T08:37:11;7;6;
39955;PMS5003;25631;51.516;-0.470;2023-03-20T08:39:47;8;6;
39955;PMS5003;25631;51.516;-0.470;2023-03-20T08:42:24;8;6;
39955;PMS5003;25631;51.516;-0.470;2023-03-20T08:45:01;8;6;
39955;PMS5003;25631;51.516;-0.470;2023-03-20T08:47:38;8;6;
39955;PMS5003;25631;51.516;-0.470;2023-03-20T08:50:14;8;6;
39955;PMS5003;25631;51.516;-0.470;2023-03-20T08:52:51;8;6;
39955;PMS5003;25631;51.516;-0.470;2023-03-20T08:55:27;7;5;
39955;PMS5003;25631;51.516;-0.470;2023-03-20T08:58:04;7;5;
39955;PMS5003;25631;51.516;-0.470;2023-03-20T09:00:41;7;5;
39955;PMS5003;25631;51.516;-0.470;2023-03-20T09:03:18;6;4;
39955;PMS5003;25631;51.516;-0.470;2023-03-20T09:05:56;6;4;
39955;PMS5003;25631;51.516;-0.470;2023-03-20T09:08:32;6;4;
39955;PMS5003;25631;51.516;-0.470;2023-03-20T09:11:09;6;4;
39955;PMS5003;25631;51.516;-0.470;2023-03-20T09:13:46;6;4;
39955;PMS5003;25631;51.516;-0.470;2023-03-20T09:16:22;6;4;
39955;PMS5003;25631;51.516;-0.470;2023-03-20T09:18:59;5;4;
39955;PMS5003;25631;51.516;-0.470;2023-03-20T09:21:35;5;4;
39955;PMS5003;25631;51.516;-0.470;2023-03-20T09:24:12;5;4;
39955;PMS5003;25631;51.516;-0.470;2023-03-20T09:26:48;6;4;
39955;PMS5003;25631;51.516;-0.470;2023-03-20T09:29:25;6;4;
39955;PMS5003;25631;51.516;-0.470;2023-03-20T09:32:01;6;4;
39955;PMS5003;25631;51.516;-0.470;2023-03-20T09:34:38;6;4;
39955;PMS5003;25631;51.516;-0.470;2023-03-20T09:37:14;6;4;
39955;PMS5003;25631;51.516;-0.470;2023-03-20T09:39:51;6;4;
39955;PMS5003;25631;51.516;-0.470;2023-03-20T09:42:31;5;3;
39955;PMS5003;25631;51.516;-0.470;2023-03-20T09:45:17;5;3;
39955;PMS5003;25631;51.516;-0.470;2023-03-20T09:48:02;5;3;
39955;PMS5003;25631;51.516;-0.470;2023-03-20T09:50:45;5;3;
39955;PMS5003;25631;51.516;-0.470;2023-03-20T09:53:30;5;3;
39955;PMS5003;25631;51.516;-0.470;2023-03-20T09:56:13;5;3;
39955;PMS5003;25631;51.516;-0.470;2023-03-20T09:58:53;5;3;
39955;PMS5003;25631;51.516;-0.470;2023-03-20T10:01:32;5;3;
39955;PMS5003;25631;51.516;-0.470;2023-03-20T10:04:19;5;3;
39955;PMS5003;25631;51.516;-0.470;2023-03-20T10:06:55;5;4;
39955;PMS5003;25631;51.516;-0.470;2023-03-20T10:09:32;5;4;
39955;PMS5003;25631;51.516;-0.470;2023-03-20T10:12:13;5;4;
39955;PMS5003;25631;51.516;-0.470;2023-03-20T10:15:00;5;4;
39955;PMS5003;25631;51.516;-0.470;2023-03-20T10:17:45;5;4;
39955;PMS5003;25631;51.516;-0.470;2023-03-20T10:20:32;5;4;
39955;PMS5003;25631;51.516;-0.470;2023-03-20T10:23:12;6;4;
39955;PMS5003;25631;51.516;-0.470;2023-03-20T10:25:58;6;4;
39955;PMS5003;25631;51.516;-0.470;2023-03-20T10:28:39;6;4;
39955;PMS5003;25631;51.516;-0.470;2023-03-20T10:31:26;4;3;
39955;PMS5003;25631;51.516;-0.470;2023-03-20T10:34:19;4;3;
39955;PMS5003;25631;51.516;-0.470;2023-03-20T10:37:10;4;3;
39955;PMS5003;25631;51.516;-0.470;2023-03-20T10:40:01;6;4;
39955;PMS5003;25631;51.516;-0.470;2023-03-20T10:42:50;6;4;
39955;PMS5003;25631;51.516;-0.470;2023-03-20T10:45:33;6;4;
39955;PMS5003;25631;51.516;-0.470;2023-03-20T10:48:16;5;4;
39955;PMS5003;25631;51.516;-0.470;2023-03-20T10:50:59;5;4;
39955;PMS5003;25631;51.516;-0.470;2023-03-20T10:53:40;5;4;
39955;PMS5003;25631;51.516;-0.470;2023-03-20T10:56:25;6;4;
39955;PMS5003;25631;51.516;-0.470;2023-03-20T10:59:06;6;4;
39955;PMS5003;25631;51.516;-0.470;2023-03-20T11:01:51;6;4;
39955;PMS5003;25631;51.516;-0.470;2023-03-20T11:04:28;6;4;
39955;PMS5003;25631;51.516;-0.470;2023-03-20T11:07:06;6;4;
39955;PMS5003;25631;51.516;-0.470;2023-03-20T11:10:06;6;4;
39955;PMS5003;25631;51.516;-0.470;2023-03-20T11:12:44;6;4;
39955;PMS5003;25631;51.516;-0.470;2023-03-20T11:15:23;6;4;
39955;PMS5003;25631;51.516;-0.470;2023-03-20T11:18:02;6;4;
39955;PMS5003;25631;51.516;-0.470;2023-03-20T11:20:43;7;4;
39955;PMS5003;25631;51.516;-0.470;2023-03-20T11:23:23;7;4;
39955;PMS5003;25631;51.516;-0.470;2023-03-20T11:26:02;7;4;
39955;PMS5003;25631;51.516;-0.470;2023-03-20T11:28:40;7;4;
39955;PMS5003;25631;51.516;-0.470;2023-03-20T11:31:23;7;4;
39955;PMS5003;25631;51.516;-0.470;2023-03-20T11:34:19;7;4;
39955;PMS5003;25631;51.516;-0.470;2023-03-20T11:36:59;8;5;
39955;PMS5003;25631;51.516;-0.470;2023-03-20T11:39:42;8;5;
39955;PMS5003;25631;51.516;-0.470;2023-03-20T11:42:30;8;5;
39955;PMS5003;25631;51.516;-0.470;2023-03-20T11:45:13;7;5;
39955;PMS5003;25631;51.516;-0.470;2023-03-20T11:47:52;7;5;
39955;PMS5003;25631;51.516;-0.470;2023-03-20T11:50:32;7;5;
39955;PMS5003;25631;51.516;-0.470;2023-03-20T11:53:18;8;6;
39955;PMS5003;25631;51.516;-0.470;2023-03-20T11:56:00;8;6;
39955;PMS5003;25631;51.516;-0.470;2023-03-20T11:58:46;8;6;
39955;PMS5003;25631;51.516;-0.470;2023-03-20T12:01:36;6;5;
39955;PMS5003;25631;51.516;-0.470;2023-03-20T12:04:15;6;5;
39955;PMS5003;25631;51.516;-0.470;2023-03-20T12:06:54;6;5;
39955;PMS5003;25631;51.516;-0.470;2023-03-20T12:09:37;8;5;
39955;PMS5003;25631;51.516;-0.470;2023-03-20T12:12:20;8;5;
39955;PMS5003;25631;51.516;-0.470;2023-03-20T12:15:12;8;5;
39955;PMS5003;25631;51.516;-0.470;2023-03-20T12:17:53;8;5;
39955;PMS5003;25631;51.516;-0.470;2023-03-20T12:20:33;8;5;
39955;PMS5003;25631;51.516;-0.470;2023-03-20T12:23:20;8;5;
39955;PMS5003;25631;51.516;-0.470;2023-03-20T12:26:07;6;3;
39955;PMS5003;25631;51.516;-0.470;2023-03-20T12:28:50;6;3;
39955;PMS5003;25631;51.516;-0.470;2023-03-20T12:31:34;6;3;
39955;PMS5003;25631;51.516;-0.470;2023-03-20T12:34:16;8;5;
39955;PMS5003;25631;51.516;-0.470;2023-03-20T12:36:56;8;5;
39955;PMS5003;25631;51.516;-0.470;2023-03-20T12:39:34;8;5;
39955;PMS5003;25631;51.516;-0.470;2023-03-20T12:42:14;6;4;
39955;PMS5003;25631;51.516;-0.470;2023-03-20T12:45:03;6;4;
39955;PMS5003;25631;51.516;-0.470;2023-03-20T12:47:48;6;4;
39955;PMS5003;25631;51.516;-0.470;2023-03-20T12:50:37;6;4;
39955;PMS5003;25631;51.516;-0.470;2023-03-20T12:53:20;6;4;
39955;PMS5003;25631;51.516;-0.470;2023-03-20T12:56:12;6;4;
39955;PMS5003;25631;51.516;-0.470;2023-03-20T12:59:00;6;4;
39955;PMS5003;25631;51.516;-0.470;2023-03-20T13:01:47;6;4;
39955;PMS5003;25631;51.516;-0.470;2023-03-20T13:04:39;6;4;
39955;PMS5003;25631;51.516;-0.470;2023-03-20T13:07:23;7;4;
39955;PMS5003;25631;51.516;-0.470;2023-03-20T13:10:15;7;4;
39955;PMS5003;25631;51.516;-0.470;2023-03-20T13:12:59;7;4;
39955;PMS5003;25631;51.516;-0.470;2023-03-20T13:15:48;7;4;
39955;PMS5003;25631;51.516;-0.470;2023-03-20T13:18:39;7;4;
39955;PMS5003;25631;51.516;-0.470;2023-03-20T13:21:28;7;4;
39955;PMS5003;25631;51.516;-0.470;2023-03-20T13:24:13;7;4;
39955;PMS5003;25631;51.516;-0.470;2023-03-20T13:27:01;7;4;
39955;PMS5003;25631;51.516;-0.470;2023-03-20T13:29:52;7;4;
39955;PMS5003;25631;51.516;-0.470;2023-03-20T13:32:38;7;5;
39955;PMS5003;25631;51.516;-0.470;2023-03-20T13:35:29;7;5;
39955;PMS5003;25631;51.516;-0.470;2023-03-20T13:38:15;7;5;
39955;PMS5003;25631;51.516;-0.470;2023-03-20T13:40:57;7;5;
39955;PMS5003;25631;51.516;-0.470;2023-03-20T13:43:38;7;5;
39955;PMS5003;25631;51.516;-0.470;2023-03-20T13:46:18;7;5;
39955;PMS5003;25631;51.516;-0.470;2023-03-20T13:49:01;7;5;
39955;PMS5003;25631;51.516;-0.470;2023-03-20T13:51:43;7;5;
39955;PMS5003;25631;51.516;-0.470;2023-03-20T13:54:32;7;5;
39955;PMS5003;25631;51.516;-0.470;2023-03-20T13:57:20;7;5;
39955;PMS5003;25631;51.516;-0.470;2023-03-20T14:00:04;7;5;
39955;PMS5003;25631;51.516;-0.470;2023-03-20T14:03:00;7;5;
39955;PMS5003;25631;51.516;-0.470;2023-03-20T14:05:49;8;6;
39955;PMS5003;25631;51.516;-0.470;2023-03-20T14:08:29;8;6;
39955;PMS5003;25631;51.516;-0.470;2023-03-20T14:11:13;8;6;
39955;PMS5003;25631;51.516;-0.470;2023-03-20T14:14:05;7;6;
39955;PMS5003;25631;51.516;-0.470;2023-03-20T14:16:47;7;6;
39955;PMS5003;25631;51.516;-0.470;2023-03-20T14:19:24;7;6;
39955;PMS5003;25631;51.516;-0.470;2023-03-20T14:22:00;7;5;
39955;PMS5003;25631;51.516;-0.470;2023-03-20T14:24:37;7;5;
39955;PMS5003;25631;51.516;-0.470;2023-03-20T14:27:15;7;5;
39955;PMS5003;25631;51.516;-0.470;2023-03-20T14:29:53;6;5;
39955;PMS5003;25631;51.516;-0.470;2023-03-20T14:32:31;6;5;
39955;PMS5003;25631;51.516;-0.470;2023-03-20T14:35:26;6;5;
39955;PMS5003;25631;51.516;-0.470;2023-03-20T14:38:20;7;5;
39955;PMS5003;25631;51.516;-0.470;2023-03-20T14:41:01;7;5;
39955;PMS5003;25631;51.516;-0.470;2023-03-20T14:43:51;7;5;
39955;PMS5003;25631;51.516;-0.470;2023-03-20T14:46:38;9;5;
39955;PMS5003;25631;51.516;-0.470;2023-03-20T14:49:29;9;5;
39955;PMS5003;25631;51.516;-0.470;2023-03-20T14:52:48;9;5;
39955;PMS5003;25631;51.516;-0.470;2023-03-20T14:55:45;8;5;
39955;PMS5003;25631;51.516;-0.470;2023-03-20T14:58:34;8;5;
39955;PMS5003;25631;51.516;-0.470;2023-03-20T15:01:23;8;5;
39955;PMS5003;25631;51.516;-0.470;2023-03-20T15:04:04;7;5;
39955;PMS5003;25631;51.516;-0.470;2023-03-20T15:06:44;7;5;
39955;PMS5003;25631;51.516;-0.470;2023-03-20T15:09:24;7;5;
39955;PMS5003;25631;51.516;-0.470;2023-03-20T15:12:04;7;4;
39955;PMS5003;25631;51.516;-0.470;2023-03-20T15:14:42;7;4;
39955;PMS5003;25631;51.516;-0.470;2023-03-20T15:17:26;7;4;
39955;PMS5003;25631;51.516;-0.470;2023-03-20T15:20:11;7;5;
39955;PMS5003;25631;51.516;-0.470;2023-03-20T15:22:52;7;5;
39955;PMS5003;25631;51.516;-0.470;2023-03-20T15:25:30;7;5;
39955;PMS5003;25631;51.516;-0.470;2023-03-20T15:28:11;6;4;
39955;PMS5003;25631;51.516;-0.470;2023-03-20T15:30:51;6;4;
39955;PMS5003;25631;51.516;-0.470;2023-03-20T15:33:31;6;4;
39955;PMS5003;25631;51.516;-0.470;2023-03-20T15:36:10;6;4;
39955;PMS5003;25631;51.516;-0.470;2023-03-20T15:38:50;6;4;
39955;PMS5003;25631;51.516;-0.470;2023-03-20T15:41:28;6;4;
39955;PMS5003;25631;51.516;-0.470;2023-03-20T15:44:14;6;4;
39955;PMS5003;25631;51.516;-0.470;2023-03-20T15:46:55;6;4;
39955;PMS5003;25631;51.516;-0.470;2023-03-20T15:49:35;6;4;
39955;PMS5003;25631;51.516;-0.470;2023-03-20T15:52:15;5;2;
39955;PMS5003;25631;51.516;-0.470;2023-03-20T15:54:57;5;2;
39955;PMS5003;25631;51.516;-0.470;2023-03-20T15:57:38;5;2;
39955;PMS5003;25631;51.516;-0.470;2023-03-20T16:00:18;4;2;
39955;PMS5003;25631;51.516;-0.470;2023-03-20T16:02:57;5;3;
39955;PMS5003;25631;51.516;-0.470;2023-03-20T16:05:36;5;3;
39955;PMS5003;25631;51.516;-0.470;2023-03-20T16:08:13;3;3;
39955;PMS5003;25631;51.516;-0.470;2023-03-20T16:10:57;3;3;
39955;PMS5003;25631;51.516;-0.470;2023-03-20T16:13:37;3;3;
39955;PMS5003;25631;51.516;-0.470;2023-03-20T16:16:16;2;2;
39955;PMS5003;25631;51.516;-0.470;2023-03-20T16:18:56;2;2;
39955;PMS5003;25631;51.516;-0.470;2023-03-20T16:21:34;2;2;
39955;PMS5003;25631;51.516;-0.470;2023-03-20T16:24:15;2;2;
39955;PMS5003;25631;51.516;-0.470;2023-03-20T16:26:54;2;2;
39955;PMS5003;25631;51.516;-0.470;2023-03-20T16:29:32;2;2;
39955;PMS5003;25631;51.516;-0.470;2023-03-20T16:32:13;3;2;
39955;PMS5003;25631;51.516;-0.470;2023-03-20T16:34:57;3;2;
39955;PMS5003;25631;51.516;-0.470;2023-03-20T16:37:36;3;2;
39955;PMS5003;25631;51.516;-0.470;2023-03-20T16:40:18;3;2;
39955;PMS5003;25631;51.516;-0.470;2023-03-20T16:43:02;3;2;
39955;PMS5003;25631;51.516;-0.470;2023-03-20T16:45:43;3;2;
39955;PMS5003;25631;51.516;-0.470;2023-03-20T16:48:23;3;2;
39955;PMS5003;25631;51.516;-0.470;2023-03-20T16:51:06;3;2;
39955;PMS5003;25631;51.516;-0.470;2023-03-20T16:53:53;3;2;
39955;PMS5003;25631;51.516;-0.470;2023-03-20T16:56:31;3;3;
39955;PMS5003;25631;51.516;-0.470;2023-03-20T16:59:10;3;3;
39955;PMS5003;25631;51.516;-0.470;2023-03-20T17:01:53;3;3;
39955;PMS5003;25631;51.516;-0.470;2023-03-20T17:04:39;3;3;
39955;PMS5003;25631;51.516;-0.470;2023-03-20T17:07:24;3;3;
39955;PMS5003;25631;51.516;-0.470;2023-03-20T17:10:09;3;3;
39955;PMS5003;25631;51.516;-0.470;2023-03-20T17:12:52;4;4;
39955;PMS5003;25631;51.516;-0.470;2023-03-20T17:15:29;4;4;
39955;PMS5003;25631;51.516;-0.470;2023-03-20T17:18:08;4;4;
39955;PMS5003;25631;51.516;-0.470;2023-03-20T17:20:47;4;3;
39955;PMS5003;25631;51.516;-0.470;2023-03-20T17:23:24;4;3;
39955;PMS5003;25631;51.516;-0.470;2023-03-20T17:26:00;4;3;
39955;PMS5003;25631;51.516;-0.470;2023-03-20T17:28:36;4;3;
39955;PMS5003;25631;51.516;-0.470;2023-03-20T17:31:14;4;3;
39955;PMS5003;25631;51.516;-0.470;2023-03-20T17:33:52;4;3;
39955;PMS5003;25631;51.516;-0.470;2023-03-20T17:36:29;4;3;
39955;PMS5003;25631;51.516;-0.470;2023-03-20T17:39:09;4;3;
39955;PMS5003;25631;51.516;-0.470;2023-03-20T17:41:52;4;3;
39955;PMS5003;25631;51.516;-0.470;2023-03-20T17:44:29;4;3;
39955;PMS5003;25631;51.516;-0.470;2023-03-20T17:47:07;4;3;
39955;PMS5003;25631;51.516;-0.470;2023-03-20T17:49:48;4;3;
39955;PMS5003;25631;51.516;-0.470;2023-03-20T17:52:26;4;4;
39955;PMS5003;25631;51.516;-0.470;2023-03-20T17:55:03;4;4;
39955;PMS5003;25631;51.516;-0.470;2023-03-20T17:57:41;4;4;
39955;PMS5003;25631;51.516;-0.470;2023-03-20T18:00:18;5;5;
39955;PMS5003;25631;51.516;-0.470;2023-03-20T18:02:56;5;5;
39955;PMS5003;25631;51.516;-0.470;2023-03-20T18:05:33;5;5;
39955;PMS5003;25631;51.516;-0.470;2023-03-20T18:08:11;6;5;